createdAt,value
2024-04-11T00:01:17.616Z,14.80
2024-04-11T00:04:03.599Z,14.80
2024-04-11T00:06:50.003Z,14.80
2024-04-11T00:09:36.031Z,14.80
2024-04-11T00:12:22.102Z,14.80
2024-04-11T00:15:08.393Z,14.80
2024-04-11T00:17:54.183Z,14.70
2024-04-11T00:20:39.814Z,14.70
2024-04-11T00:23:25.756Z,14.70
2024-04-11T00:26:12.046Z,14.60
2024-04-11T00:28:57.804Z,14.60
2024-04-11T00:31:43.813Z,14.60
2024-04-11T00:34:33.510Z,14.60
2024-04-11T00:37:19.703Z,14.60
2024-04-11T00:40:06.948Z,14.60
2024-04-11T00:42:53.093Z,14.60
2024-04-11T00:45:48.520Z,14.60
2024-04-11T00:48:34.704Z,14.60
2024-04-11T00:51:21.616Z,14.60
2024-04-11T00:54:07.428Z,14.60
2024-04-11T00:56:53.890Z,14.60
2024-04-11T00:59:40.736Z,14.50
2024-04-11T01:02:27.301Z,14.50
2024-04-11T01:05:12.881Z,14.50
2024-04-11T01:07:59.507Z,14.40
2024-04-11T01:10:45.657Z,14.40
2024-04-11T01:13:31.690Z,14.40
2024-04-11T01:16:19.152Z,14.30
2024-04-11T01:19:07.402Z,14.30
2024-04-11T01:21:54.520Z,14.20
2024-04-11T01:24:44.142Z,14.20
2024-04-11T01:27:30.678Z,14.20
2024-04-11T01:30:16.778Z,14.20
2024-04-11T01:33:11.320Z,14.20
2024-04-11T01:35:57.859Z,14.10
2024-04-11T01:38:46.751Z,14.10
2024-04-11T01:41:33.132Z,14.00
2024-04-11T01:44:19.507Z,14.00
2024-04-11T01:47:05.384Z,14.00
2024-04-11T01:49:51.600Z,14.00
2024-04-11T01:52:37.209Z,14.00
2024-04-11T01:55:23.059Z,14.00
2024-04-11T01:58:09.112Z,14.00
2024-04-11T02:00:55.206Z,14.00
2024-04-11T02:03:41.618Z,14.00
2024-04-11T02:06:27.758Z,14.00
2024-04-11T02:09:17.596Z,14.00
2024-04-11T02:12:04.029Z,14.00
2024-04-11T02:14:49.904Z,14.00
2024-04-11T02:17:36.442Z,14.00
2024-04-11T02:20:22.543Z,14.00
2024-04-11T02:23:08.577Z,14.00
2024-04-11T02:25:54.599Z,13.90
2024-04-11T02:28:40.598Z,13.90
2024-04-11T02:31:26.548Z,14.00
2024-04-11T02:34:12.605Z,14.00
2024-04-11T02:36:58.380Z,14.00
2024-04-11T02:39:44.058Z,13.90
2024-04-11T02:42:29.854Z,13.90
2024-04-11T02:45:19.432Z,13.90
2024-04-11T02:48:06.336Z,13.90
2024-04-11T02:50:52.612Z,13.80
2024-04-11T02:53:42.361Z,13.80
2024-04-11T02:56:28.105Z,13.70
2024-04-11T02:59:15.069Z,13.80
2024-04-11T03:02:01.085Z,13.80
2024-04-11T03:04:48.607Z,13.80
2024-04-11T03:07:34.584Z,13.80
2024-04-11T03:10:20.797Z,13.80
2024-04-11T03:13:06.599Z,13.70
2024-04-11T03:16:02.898Z,13.70
2024-04-11T03:18:48.631Z,13.80
2024-04-11T03:21:35.487Z,13.80
2024-04-11T03:24:21.358Z,13.80
2024-04-11T03:27:09.037Z,13.80
2024-04-11T03:29:55.106Z,13.70
2024-04-11T03:32:41.428Z,13.70
2024-04-11T03:35:27.704Z,13.70
2024-04-11T03:38:13.795Z,13.70
2024-04-11T03:41:04.219Z,13.60
2024-04-11T03:43:56.278Z,13.70
2024-04-11T03:46:43.241Z,13.70
2024-04-11T03:49:31.207Z,13.70
2024-04-11T03:52:17.773Z,13.70
2024-04-11T03:55:03.823Z,13.70
2024-04-11T03:57:50.878Z,13.60
2024-04-11T04:00:37.075Z,13.70
2024-04-11T04:03:24.533Z,13.60
2024-04-11T04:06:12.146Z,13.70
2024-04-11T04:08:58.540Z,13.60
2024-04-11T04:11:45.099Z,13.60
2024-04-11T04:14:32.741Z,13.60
2024-04-11T04:17:20.817Z,13.60
2024-04-11T04:20:10.718Z,13.60
2024-04-11T04:22:56.518Z,13.50
2024-04-11T04:25:42.946Z,13.50
2024-04-11T04:28:34.153Z,13.50
2024-04-11T04:31:26.643Z,13.50
2024-04-11T04:34:14.334Z,13.50
2024-04-11T04:37:00.020Z,13.50
2024-04-11T04:39:46.251Z,13.50
2024-04-11T04:42:32.077Z,13.50
2024-04-11T04:45:17.844Z,13.40
2024-04-11T04:48:04.544Z,13.40
2024-04-11T04:50:50.959Z,13.40
2024-04-11T04:53:38.381Z,13.40
2024-04-11T04:56:24.384Z,13.40
2024-04-11T04:59:10.437Z,13.40
2024-04-11T05:01:56.163Z,13.40
2024-04-11T05:04:42.340Z,13.40
2024-04-11T05:07:28.167Z,13.40
2024-04-11T05:10:13.994Z,13.40
2024-04-11T05:13:00.824Z,13.40
2024-04-11T05:15:47.543Z,13.40
2024-04-11T05:18:40.717Z,13.40
2024-04-11T05:21:27.701Z,13.50
2024-04-11T05:24:15.016Z,13.50
2024-04-11T05:27:01.289Z,13.50
2024-04-11T05:29:47.602Z,13.50
2024-04-11T05:32:33.991Z,13.60
2024-04-11T05:35:24.902Z,13.60
2024-04-11T05:38:12.358Z,13.60
2024-04-11T05:40:58.218Z,13.70
2024-04-11T05:43:44.507Z,13.70
2024-04-11T05:46:31.410Z,13.70
2024-04-11T05:49:18.974Z,13.80
2024-04-11T05:52:06.647Z,13.80
2024-04-11T05:54:52.633Z,13.80
2024-04-11T05:57:39.049Z,13.90
2024-04-11T06:00:30.535Z,13.90
2024-04-11T06:03:18.854Z,14.00
2024-04-11T06:06:05.310Z,14.10
2024-04-11T06:08:52.472Z,14.10
2024-04-11T06:11:41.338Z,14.20
2024-04-11T06:14:28.027Z,14.30
2024-04-11T06:17:13.761Z,14.30
2024-04-11T06:20:02.597Z,14.40
2024-04-11T06:22:53.566Z,14.40
2024-04-11T06:25:40.898Z,14.50
2024-04-11T06:28:26.647Z,14.60
2024-04-11T06:31:13.320Z,14.60
2024-04-11T06:33:59.260Z,14.70
2024-04-11T06:36:50.626Z,14.80
2024-04-11T06:39:37.280Z,14.80
2024-04-11T06:42:23.378Z,14.90
2024-04-11T06:45:10.023Z,15.00
2024-04-11T06:47:56.121Z,15.00
2024-04-11T06:50:42.202Z,15.10
2024-04-11T06:53:31.427Z,15.20
2024-04-11T06:56:19.421Z,15.30
2024-04-11T06:59:11.841Z,15.40
2024-04-11T07:01:59.700Z,15.50
2024-04-11T07:04:45.659Z,15.60
2024-04-11T07:07:31.987Z,15.70
2024-04-11T07:10:25.400Z,15.80
2024-04-11T07:13:11.275Z,15.90
2024-04-11T07:15:59.951Z,16.00
2024-04-11T07:18:56.300Z,16.10
2024-04-11T07:21:44.978Z,16.20
2024-04-11T07:24:30.751Z,16.30
2024-04-11T07:27:18.494Z,16.40
2024-04-11T07:30:13.062Z,16.50
2024-04-11T07:32:58.823Z,16.60
2024-04-11T07:35:46.289Z,16.70
2024-04-11T07:38:31.844Z,16.80
2024-04-11T07:41:21.398Z,16.90
2024-04-11T07:44:08.212Z,17.00
2024-04-11T07:47:06.003Z,17.10
2024-04-11T07:50:00.355Z,17.30
2024-04-11T07:52:46.292Z,17.30
2024-04-11T07:55:32.668Z,17.40
2024-04-11T07:58:22.989Z,17.60
2024-04-11T08:01:09.434Z,17.70
2024-04-11T08:03:55.994Z,17.90
2024-04-11T08:06:42.351Z,18.10
2024-04-11T08:09:42.184Z,18.20
2024-04-11T08:12:28.772Z,18.40
2024-04-11T08:15:15.975Z,18.60
2024-04-11T08:18:04.910Z,18.70
2024-04-11T08:20:50.841Z,18.80
2024-04-11T08:23:41.960Z,18.90
2024-04-11T08:26:28.213Z,18.90
2024-04-11T08:29:15.244Z,19.00
2024-04-11T08:32:01.723Z,19.10
2024-04-11T08:34:48.101Z,19.20
2024-04-11T08:37:36.736Z,19.20
2024-04-11T08:40:22.704Z,19.30
2024-04-11T08:43:10.732Z,19.40
2024-04-11T08:45:59.552Z,19.50
2024-04-11T08:48:45.794Z,19.60
2024-04-11T08:51:41.376Z,19.70
2024-04-11T08:54:28.275Z,19.90
2024-04-11T08:57:14.553Z,20.10
2024-04-11T09:00:04.121Z,20.30
2024-04-11T09:02:50.423Z,20.50
2024-04-11T09:05:36.331Z,20.80
2024-04-11T09:08:26.717Z,21.00
2024-04-11T09:11:14.968Z,21.20
2024-04-11T09:14:00.720Z,21.40
2024-04-11T09:16:47.086Z,21.60
2024-04-11T09:19:40.673Z,21.70
2024-04-11T09:22:26.712Z,21.90
2024-04-11T09:25:13.209Z,21.90
2024-04-11T09:28:02.575Z,22.10
2024-04-11T09:30:52.677Z,22.20
2024-04-11T09:33:41.390Z,22.40
2024-04-11T09:36:29.634Z,22.40
2024-04-11T09:39:42.563Z,22.40
2024-04-11T09:42:31.380Z,22.50
2024-04-11T09:45:20.131Z,22.50
2024-04-11T09:48:07.559Z,22.80
2024-04-11T09:50:54.285Z,23.10
2024-04-11T09:53:42.797Z,23.40
2024-04-11T09:56:29.746Z,23.80
2024-04-11T09:59:17.258Z,24.10
2024-04-11T10:02:05.161Z,24.40
2024-04-11T10:04:58.791Z,24.70
2024-04-11T10:07:47.090Z,24.90
2024-04-11T10:10:35.441Z,25.10
2024-04-11T10:13:24.980Z,25.40
2024-04-11T10:16:25.982Z,25.80
2024-04-11T10:19:28.643Z,26.20
2024-04-11T10:22:21.380Z,26.50
2024-04-11T10:25:07.739Z,26.70
2024-04-11T10:27:56.871Z,27.00
2024-04-11T10:30:44.057Z,27.30
2024-04-11T10:33:31.362Z,27.50
2024-04-11T10:36:18.795Z,27.70
2024-04-11T10:39:09.631Z,27.70
2024-04-11T10:41:58.977Z,27.50
2024-04-11T10:44:45.469Z,27.20
2024-04-11T10:47:31.459Z,27.10
2024-04-11T10:50:17.308Z,27.30
2024-04-11T10:53:06.212Z,27.70
2024-04-11T10:55:56.738Z,28.10
2024-04-11T10:58:42.968Z,28.40
2024-04-11T11:01:29.070Z,28.70
2024-04-11T11:04:22.107Z,28.80
2024-04-11T11:07:11.733Z,29.00
2024-04-11T11:09:58.924Z,29.20
2024-04-11T11:12:45.991Z,29.40
2024-04-11T11:15:32.423Z,29.70
2024-04-11T11:18:18.486Z,29.80
2024-04-11T11:21:09.087Z,29.70
2024-04-11T11:24:02.250Z,29.50
2024-04-11T11:26:48.296Z,29.30
2024-04-11T11:29:34.399Z,29.30
2024-04-11T11:32:20.283Z,29.40
2024-04-11T11:35:11.194Z,29.50
2024-04-11T11:37:57.103Z,29.50
2024-04-11T11:40:55.199Z,29.30
2024-04-11T11:43:45.310Z,29.00
2024-04-11T11:46:33.206Z,28.40
2024-04-11T11:49:19.504Z,28.00
2024-04-11T11:52:06.811Z,27.50
2024-04-11T11:54:52.823Z,27.20
2024-04-11T11:57:41.519Z,26.90
2024-04-11T12:00:33.633Z,26.90
2024-04-11T12:03:28.209Z,26.90
2024-04-11T12:06:23.016Z,26.90
2024-04-11T12:09:11.955Z,27.00
2024-04-11T12:12:17.766Z,27.20
2024-04-11T12:15:06.631Z,27.30
2024-04-11T12:17:53.917Z,27.40
2024-04-11T12:20:41.271Z,27.50
2024-04-11T12:23:31.285Z,27.60
2024-04-11T12:26:17.103Z,27.50
2024-04-11T12:29:05.240Z,27.40
2024-04-11T12:31:52.232Z,27.20
2024-04-11T12:34:38.749Z,27.10
2024-04-11T12:37:26.578Z,26.90
2024-04-11T12:40:17.225Z,26.90
2024-04-11T12:43:04.497Z,26.80
2024-04-11T12:45:53.925Z,26.60
2024-04-11T12:48:42.126Z,26.40
2024-04-11T12:51:32.005Z,26.30
2024-04-11T12:54:17.943Z,26.20
2024-04-11T12:57:07.415Z,26.10
2024-04-11T12:59:57.516Z,25.90
2024-04-11T13:02:43.751Z,25.90
2024-04-11T13:05:32.590Z,25.90
2024-04-11T13:08:32.685Z,26.10
2024-04-11T13:11:38.564Z,26.50
2024-04-11T13:14:28.877Z,27.00
2024-04-11T13:17:14.909Z,27.50
2024-04-11T13:20:13.264Z,28.00
2024-04-11T13:23:12.502Z,28.40
2024-04-11T13:25:59.383Z,28.80
2024-04-11T13:28:51.138Z,29.20
2024-04-11T13:31:37.505Z,29.30
2024-04-11T13:34:39.721Z,29.40
2024-04-11T13:37:25.610Z,29.50
2024-04-11T13:40:29.581Z,29.50
2024-04-11T13:43:18.637Z,29.40
2024-04-11T13:46:10.759Z,29.30
2024-04-11T13:48:56.708Z,29.20
2024-04-11T13:51:46.507Z,28.80
2024-04-11T13:54:33.524Z,28.50
2024-04-11T13:57:22.847Z,28.10
2024-04-11T14:00:10.790Z,27.70
2024-04-11T14:03:18.166Z,27.30
2024-04-11T14:06:23.800Z,27.00
2024-04-11T14:09:11.671Z,26.80
2024-04-11T14:11:58.201Z,26.50
2024-04-11T14:14:44.227Z,26.30
2024-04-11T14:17:30.163Z,26.00
2024-04-11T14:20:18.928Z,25.80
2024-04-11T14:23:24.007Z,25.60
2024-04-11T14:26:09.818Z,25.30
2024-04-11T14:28:56.479Z,25.10
2024-04-11T14:31:44.312Z,25.00
2024-04-11T14:34:48.333Z,24.90
2024-04-11T14:37:48.131Z,24.80
2024-04-11T14:40:37.229Z,24.70
2024-04-11T14:43:31.890Z,24.60
2024-04-11T14:46:18.361Z,24.50
2024-04-11T14:49:07.204Z,24.30
2024-04-11T14:51:55.191Z,24.20
2024-04-11T14:54:47.567Z,24.20
2024-04-11T14:57:35.203Z,24.10
2024-04-11T15:00:40.356Z,24.10
2024-04-11T15:03:31.505Z,24.00
2024-04-11T15:06:17.806Z,23.90
2024-04-11T15:09:27.950Z,23.90
2024-04-11T15:12:16.440Z,23.90
2024-04-11T15:15:02.654Z,23.90
2024-04-11T15:17:59.785Z,23.90
2024-04-11T15:20:50.925Z,23.80
2024-04-11T15:23:37.688Z,23.80
2024-04-11T15:26:28.396Z,23.80
2024-04-11T15:29:23.104Z,23.80
2024-04-11T15:32:24.040Z,23.70
2024-04-11T15:35:10.938Z,23.50
2024-04-11T15:37:57.013Z,23.50
2024-04-11T15:40:43.042Z,23.40
2024-04-11T15:43:29.286Z,23.30
2024-04-11T15:46:21.377Z,23.30
2024-04-11T15:49:13.382Z,23.20
2024-04-11T15:52:00.151Z,23.10
2024-04-11T15:54:58.635Z,23.10
2024-04-11T15:57:44.971Z,23.10
2024-04-11T16:00:40.372Z,23.10
2024-04-11T16:03:38.244Z,23.10
2024-04-11T16:06:27.068Z,23.00
2024-04-11T16:09:18.103Z,23.00
2024-04-11T16:12:04.821Z,22.90
2024-04-11T16:14:52.579Z,22.90
2024-04-11T16:17:39.620Z,22.80
2024-04-11T16:20:25.486Z,22.80
2024-04-11T16:23:11.141Z,22.70
2024-04-11T16:25:57.479Z,22.60
2024-04-11T16:28:43.458Z,22.60
2024-04-11T16:31:30.311Z,22.60
2024-04-11T16:34:20.599Z,22.60
2024-04-11T16:37:07.728Z,22.50
2024-04-11T16:39:54.811Z,22.50
2024-04-11T16:42:41.452Z,22.50
2024-04-11T16:45:27.564Z,22.40
2024-04-11T16:48:15.444Z,22.40
2024-04-11T16:51:03.398Z,22.30
2024-04-11T16:54:09.443Z,22.30
2024-04-11T16:56:58.773Z,22.20
2024-04-11T16:59:45.994Z,22.20
2024-04-11T17:02:32.464Z,22.10
2024-04-11T17:05:19.409Z,22.10
2024-04-11T17:08:10.075Z,22.10
2024-04-11T17:10:58.803Z,22.00
2024-04-11T17:13:46.126Z,22.00
2024-04-11T17:16:58.007Z,22.00
2024-04-11T17:19:52.623Z,22.00
2024-04-11T17:22:56.811Z,22.00
2024-04-11T17:25:43.021Z,22.00
2024-04-11T17:28:41.825Z,22.00
2024-04-11T17:31:34.365Z,22.00
2024-04-11T17:34:20.230Z,21.90
2024-04-11T17:37:15.847Z,21.90
2024-04-11T17:40:22.075Z,21.90
2024-04-11T17:43:18.704Z,21.80
2024-04-11T17:46:06.105Z,21.80
2024-04-11T17:48:58.077Z,21.70
2024-04-11T17:51:47.197Z,21.70
2024-04-11T17:54:35.508Z,21.60
2024-04-11T17:57:24.258Z,21.60
2024-04-11T18:00:14.495Z,21.50
2024-04-11T18:03:02.259Z,21.40
2024-04-11T18:05:51.769Z,21.40
2024-04-11T18:08:39.080Z,21.30
2024-04-11T18:11:27.979Z,21.20
2024-04-11T18:14:22.558Z,21.10
2024-04-11T18:17:11.963Z,21.10
2024-04-11T18:20:00.801Z,21.00
2024-04-11T18:22:50.066Z,20.90
2024-04-11T18:25:39.164Z,20.80
2024-04-11T18:28:26.868Z,20.80
2024-04-11T18:31:18.153Z,20.70
2024-04-11T18:34:07.050Z,20.60
2024-04-11T18:36:57.408Z,20.50
2024-04-11T18:40:02.716Z,20.50
2024-04-11T18:42:55.143Z,20.40
2024-04-11T18:45:41.307Z,20.30
2024-04-11T18:48:53.229Z,20.30
2024-04-11T18:51:47.967Z,20.20
2024-04-11T18:54:35.276Z,20.10
2024-04-11T18:57:26.303Z,20.10
2024-04-11T19:00:13.066Z,20.00
2024-04-11T19:03:17.313Z,19.90
2024-04-11T19:06:06.524Z,19.80
2024-04-11T19:08:52.457Z,19.70
2024-04-11T19:11:42.250Z,19.70
2024-04-11T19:14:30.673Z,19.60
2024-04-11T19:17:19.615Z,19.60
2024-04-11T19:20:21.737Z,19.50
2024-04-11T19:23:08.755Z,19.40
2024-04-11T19:26:01.691Z,19.40
2024-04-11T19:28:48.401Z,19.30
2024-04-11T19:31:50.637Z,19.20
2024-04-11T19:34:41.798Z,19.20
2024-04-11T19:37:27.633Z,19.10
2024-04-11T19:40:15.226Z,19.10
2024-04-11T19:43:01.659Z,19.00
2024-04-11T19:45:51.199Z,19.00
2024-04-11T19:48:38.745Z,18.90
2024-04-11T19:51:29.601Z,18.80
2024-04-11T19:54:20.928Z,18.80
2024-04-11T19:57:17.061Z,18.80
2024-04-11T20:00:18.631Z,18.80
2024-04-11T20:03:17.946Z,18.70
2024-04-11T20:06:09.123Z,18.60
2024-04-11T20:08:58.916Z,18.60
2024-04-11T20:11:51.181Z,18.50
2024-04-11T20:14:52.148Z,18.50
2024-04-11T20:17:38.907Z,18.50
2024-04-11T20:20:32.176Z,18.40
2024-04-11T20:23:20.795Z,18.40
2024-04-11T20:26:12.335Z,18.40
2024-04-11T20:29:04.956Z,18.30
2024-04-11T20:31:54.118Z,18.30
2024-04-11T20:34:40.542Z,18.30
2024-04-11T20:37:27.747Z,18.30
2024-04-11T20:40:14.058Z,18.20
2024-04-11T20:43:20.220Z,18.10
2024-04-11T20:46:14.643Z,18.10
2024-04-11T20:49:20.920Z,18.10
2024-04-11T20:52:26.778Z,18.10
2024-04-11T20:55:30.968Z,18.00
2024-04-11T20:58:35.212Z,18.00
2024-04-11T21:01:39.442Z,18.00
2024-04-11T21:04:43.540Z,17.90
2024-04-11T21:07:49.970Z,17.80
2024-04-11T21:10:54.484Z,17.80
2024-04-11T21:13:59.087Z,17.80
2024-04-11T21:17:03.997Z,17.80
2024-04-11T21:20:10.286Z,17.70
2024-04-11T21:23:14.355Z,17.70
2024-04-11T21:26:27.854Z,17.70
2024-04-11T21:29:32.206Z,17.70
2024-04-11T21:32:36.969Z,17.60
2024-04-11T21:35:23.475Z,17.60
2024-04-11T21:38:12.248Z,17.50
2024-04-11T21:41:17.234Z,17.50
2024-04-11T21:44:05.676Z,17.40
2024-04-11T21:46:52.473Z,17.40
2024-04-11T21:49:40.650Z,17.40
2024-04-11T21:52:29.075Z,17.40
2024-04-11T21:55:15.843Z,17.30
2024-04-11T21:58:10.263Z,17.30
2024-04-11T22:01:03.852Z,17.30
2024-04-11T22:03:53.106Z,17.30
2024-04-11T22:06:39.039Z,17.20
2024-04-11T22:09:26.318Z,17.20
2024-04-11T22:12:14.059Z,17.20
2024-04-11T22:14:59.957Z,17.20
2024-04-11T22:17:53.838Z,17.10
2024-04-11T22:20:40.136Z,17.10
2024-04-11T22:23:28.154Z,17.10
2024-04-11T22:26:19.597Z,17.10
2024-04-11T22:29:12.277Z,17.10
2024-04-11T22:31:58.038Z,17.10
2024-04-11T22:34:47.915Z,17.00
2024-04-11T22:37:34.316Z,17.00
2024-04-11T22:40:22.359Z,17.00
2024-04-11T22:43:16.553Z,17.00
2024-04-11T22:46:04.294Z,17.00
2024-04-11T22:48:52.407Z,17.00
2024-04-11T22:51:43.637Z,16.90
2024-04-11T22:54:32.768Z,16.90
2024-04-11T22:57:18.513Z,16.90
2024-04-11T23:00:28.796Z,16.90
2024-04-11T23:03:15.742Z,16.80
2024-04-11T23:06:02.235Z,16.80
2024-04-11T23:08:48.303Z,16.80
2024-04-11T23:11:35.220Z,16.80
2024-04-11T23:14:21.235Z,16.70
2024-04-11T23:17:14.082Z,16.70
2024-04-11T23:19:59.868Z,16.70
2024-04-11T23:22:46.369Z,16.70
2024-04-11T23:25:39.094Z,16.70
2024-04-11T23:28:30.163Z,16.60
2024-04-11T23:31:17.043Z,16.60
2024-04-11T23:34:03.414Z,16.50
2024-04-11T23:37:00.473Z,16.50
2024-04-11T23:39:46.762Z,16.50
2024-04-11T23:42:42.720Z,16.50
2024-04-11T23:45:31.053Z,16.40
2024-04-11T23:48:17.786Z,16.40
2024-04-11T23:51:05.700Z,16.40
2024-04-11T23:53:56.102Z,16.40
2024-04-11T23:56:45.163Z,16.30
2024-04-11T23:59:40.268Z,16.30
